createdAt,value
2023-05-19T00:02:09.331Z,100913.81
2023-05-19T00:05:15.207Z,100911.09
2023-05-19T00:08:18.971Z,100906.59
2023-05-19T00:11:22.866Z,100908.25
2023-05-19T00:14:26.819Z,100901.16
2023-05-19T00:17:29.676Z,100905.41
2023-05-19T00:20:32.774Z,100908.91
2023-05-19T00:23:35.707Z,100916.78
2023-05-19T00:26:38.318Z,100913.22
2023-05-19T00:29:42.326Z,100907.09
2023-05-19T00:32:45.108Z,100908.78
2023-05-19T00:35:47.893Z,100904.31
2023-05-19T00:38:51.371Z,100901.69
2023-05-19T00:41:54.005Z,100900.75
2023-05-19T00:44:56.639Z,100900.69
2023-05-19T00:47:59.347Z,100898.91
2023-05-19T00:51:05.229Z,100890.06
2023-05-19T00:54:08.492Z,100889.94
2023-05-19T00:57:11.763Z,100889.94
2023-05-19T01:00:14.665Z,100888.16
2023-05-19T01:03:20.650Z,100892.78
2023-05-19T01:06:23.729Z,100891.78
2023-05-19T01:09:26.704Z,100893.50
2023-05-19T01:12:29.545Z,100890.00
2023-05-19T01:15:41.908Z,100891.78
2023-05-19T01:18:56.845Z,100895.25
2023-05-19T01:22:07.012Z,100885.75
2023-05-19T01:25:28.548Z,100888.37
2023-05-19T01:28:37.114Z,100892.66
2023-05-19T01:31:42.363Z,100896.00
2023-05-19T01:34:46.493Z,100895.94
2023-05-19T01:37:50.048Z,100894.97
2023-05-19T01:40:54.289Z,100889.66
2023-05-19T01:43:57.567Z,100889.72
2023-05-19T01:47:01.083Z,100888.91
2023-05-19T01:50:04.478Z,100881.97
2023-05-19T01:53:07.101Z,100877.72
2023-05-19T01:56:10.682Z,100883.75
2023-05-19T01:59:39.521Z,100888.25
2023-05-19T02:02:48.492Z,100877.87
2023-05-19T02:05:57.643Z,100891.72
2023-05-19T02:09:16.258Z,100883.72
2023-05-19T02:12:20.609Z,100883.59
2023-05-19T02:15:28.824Z,100878.53
2023-05-19T02:18:35.507Z,100893.31
2023-05-19T02:21:38.094Z,100886.28
2023-05-19T02:24:44.447Z,100888.00
2023-05-19T02:27:49.066Z,100893.25
2023-05-19T02:30:51.615Z,100889.66
2023-05-19T02:33:54.235Z,100883.38
2023-05-19T02:36:57.760Z,100892.22
2023-05-19T02:40:00.571Z,100890.38
2023-05-19T02:43:03.540Z,100890.25
2023-05-19T02:46:06.259Z,100886.69
2023-05-19T02:49:09.420Z,100878.78
2023-05-19T02:52:12.236Z,100874.63
2023-05-19T02:55:17.235Z,100882.44
2023-05-19T02:58:20.980Z,100874.53
2023-05-19T03:01:23.766Z,100885.13
2023-05-19T03:04:26.432Z,100885.19
2023-05-19T03:07:29.077Z,100881.69
2023-05-19T03:10:31.978Z,100891.31
2023-05-19T03:13:34.986Z,100886.06
2023-05-19T03:16:37.888Z,100885.13
2023-05-19T03:19:41.604Z,100890.38
2023-05-19T03:22:44.445Z,100893.03
2023-05-19T03:25:47.791Z,100894.84
2023-05-19T03:28:50.954Z,100903.56
2023-05-19T03:31:53.771Z,100894.84
2023-05-19T03:34:56.455Z,100903.53
2023-05-19T03:37:59.257Z,100903.53
2023-05-19T03:41:02.123Z,100895.59
2023-05-19T03:44:04.843Z,100886.12
2023-05-19T03:47:07.617Z,100887.97
2023-05-19T03:50:11.692Z,100890.69
2023-05-19T03:53:14.885Z,100898.59
2023-05-19T03:56:18.317Z,100890.97
2023-05-19T03:59:21.002Z,100900.75
2023-05-19T04:02:23.733Z,100900.94
2023-05-19T04:05:26.444Z,100902.78
2023-05-19T04:08:29.539Z,100904.69
2023-05-19T04:11:32.236Z,100891.66
2023-05-19T04:14:34.893Z,100901.34
2023-05-19T04:17:39.092Z,100904.09
2023-05-19T04:20:42.232Z,100906.06
2023-05-19T04:23:45.211Z,100909.94
2023-05-19T04:26:48.233Z,100909.28
2023-05-19T04:29:51.068Z,100918.16
2023-05-19T04:32:53.970Z,100911.94
2023-05-19T04:35:56.893Z,100916.53
2023-05-19T04:39:02.335Z,100923.91
2023-05-19T04:42:05.922Z,100925.78
2023-05-19T04:45:09.589Z,100929.19
2023-05-19T04:48:14.042Z,100932.22
2023-05-19T04:51:17.678Z,100927.78
2023-05-19T04:54:20.537Z,100935.72
2023-05-19T04:57:23.475Z,100935.81
2023-05-19T05:00:26.489Z,100936.94
2023-05-19T05:03:31.082Z,100929.25
2023-05-19T05:06:33.960Z,100930.38
2023-05-19T05:09:36.931Z,100931.41
2023-05-19T05:12:39.843Z,100934.22
2023-05-19T05:15:42.623Z,100935.69
2023-05-19T05:18:46.952Z,100942.31
2023-05-19T05:21:49.901Z,100945.53
2023-05-19T05:24:52.777Z,100945.53
2023-05-19T05:27:55.856Z,100944.84
2023-05-19T05:30:59.071Z,100953.91
2023-05-19T05:34:01.898Z,100953.03
2023-05-19T05:37:05.397Z,100949.22
2023-05-19T05:40:09.312Z,100943.53
2023-05-19T05:43:12.235Z,100944.28
2023-05-19T05:46:16.834Z,100940.81
2023-05-19T05:49:19.784Z,100936.44
2023-05-19T05:52:24.792Z,100944.00
2023-05-19T05:55:27.706Z,100943.56
2023-05-19T05:58:32.735Z,100941.81
2023-05-19T06:01:38.275Z,100945.91
2023-05-19T06:04:41.903Z,100952.78
2023-05-19T06:07:44.500Z,100949.34
2023-05-19T06:10:47.743Z,100941.50
2023-05-19T06:13:50.511Z,100953.84
2023-05-19T06:16:54.792Z,100955.50
2023-05-19T06:19:57.397Z,100955.41
2023-05-19T06:23:01.130Z,100958.19
2023-05-19T06:26:04.079Z,100957.94
2023-05-19T06:29:07.581Z,100962.19
2023-05-19T06:32:10.140Z,100966.81
2023-05-19T06:35:13.648Z,100964.00
2023-05-19T06:38:16.121Z,100971.81
2023-05-19T06:41:19.106Z,100976.09
2023-05-19T06:44:22.650Z,100979.28
2023-05-19T06:47:25.960Z,100982.44
2023-05-19T06:50:28.446Z,100989.41
2023-05-19T06:53:31.772Z,100985.91
2023-05-19T06:56:34.323Z,100992.94
2023-05-19T06:59:40.886Z,100991.97
2023-05-19T07:02:43.882Z,100989.66
2023-05-19T07:05:47.410Z,100992.59
2023-05-19T07:08:51.288Z,100994.19
2023-05-19T07:11:56.423Z,100984.78
2023-05-19T07:14:59.220Z,100984.91
2023-05-19T07:18:03.572Z,100987.84
2023-05-19T07:21:07.371Z,100983.47
2023-05-19T07:24:10.587Z,100993.66
2023-05-19T07:27:12.947Z,100986.75
2023-05-19T07:30:16.133Z,100973.91
2023-05-19T07:33:18.475Z,100969.81
2023-05-19T07:36:21.472Z,100959.31
2023-05-19T07:39:26.367Z,100959.41
2023-05-19T07:42:29.377Z,100957.09
2023-05-19T07:45:31.669Z,100961.88
2023-05-19T07:48:34.580Z,100958.41
2023-05-19T07:51:36.897Z,100956.88
2023-05-19T07:54:39.824Z,100960.44
2023-05-19T07:57:42.317Z,100957.88
2023-05-19T08:00:46.201Z,100959.75
2023-05-19T08:03:49.111Z,100959.69
2023-05-19T08:06:53.011Z,100952.53
2023-05-19T08:09:55.864Z,100949.16
2023-05-19T08:12:58.556Z,100951.03
2023-05-19T08:16:01.510Z,100955.41
2023-05-19T08:19:05.521Z,100947.47
2023-05-19T08:22:08.205Z,100943.91
2023-05-19T08:25:11.717Z,100948.34
2023-05-19T08:28:14.466Z,100945.72
2023-05-19T08:31:18.539Z,100946.50
2023-05-19T08:34:21.270Z,100936.38
2023-05-19T08:37:23.931Z,100941.50
2023-05-19T08:40:29.169Z,100936.25
2023-05-19T08:43:31.919Z,100938.84
2023-05-19T08:46:35.274Z,100931.78
2023-05-19T08:49:43.399Z,100933.91
2023-05-19T08:52:53.102Z,100935.78
2023-05-19T08:56:02.205Z,100934.91
2023-05-19T08:59:05.180Z,100936.62
2023-05-19T09:02:10.245Z,100933.53
2023-05-19T09:05:13.287Z,100939.56
2023-05-19T09:08:16.237Z,100924.87
2023-05-19T09:11:19.032Z,100926.97
2023-05-19T09:14:22.152Z,100927.09
2023-05-19T09:17:24.854Z,100927.56
2023-05-19T09:20:30.774Z,100921.47
2023-05-19T09:23:34.100Z,100920.44
2023-05-19T09:26:38.173Z,100929.31
2023-05-19T09:29:40.993Z,100928.00
2023-05-19T09:32:44.756Z,100932.59
2023-05-19T09:35:47.963Z,100924.03
2023-05-19T09:38:51.700Z,100921.59
2023-05-19T09:41:55.339Z,100921.16
2023-05-19T09:45:04.956Z,100921.16
2023-05-19T09:48:08.055Z,100913.59
2023-05-19T09:51:11.054Z,100910.63
2023-05-19T09:54:17.022Z,100915.16
2023-05-19T09:57:25.170Z,100904.13
2023-05-19T10:00:28.236Z,100898.78
2023-05-19T10:03:33.036Z,100900.31
2023-05-19T10:06:35.849Z,100900.22
2023-05-19T10:09:39.440Z,100895.09
2023-05-19T10:12:42.354Z,100896.94
2023-05-19T10:15:57.951Z,100884.84
2023-05-19T10:19:02.563Z,100883.59
2023-05-19T10:22:05.591Z,100884.87
2023-05-19T10:25:08.595Z,100885.16
2023-05-19T10:28:16.393Z,100883.69
2023-05-19T10:31:21.456Z,100867.59
2023-05-19T10:34:50.479Z,100872.75
2023-05-19T10:37:56.246Z,100873.09
2023-05-19T10:41:02.865Z,100875.97
2023-05-19T10:44:11.724Z,100876.97
2023-05-19T10:47:14.900Z,100864.94
2023-05-19T10:50:18.658Z,100873.44
2023-05-19T10:53:22.978Z,100863.87
2023-05-19T10:56:36.412Z,100860.94
2023-05-19T10:59:39.486Z,100857.53
2023-05-19T11:02:41.966Z,100857.75
2023-05-19T11:05:50.927Z,100851.25
2023-05-19T11:09:01.003Z,100842.75
2023-05-19T11:12:04.200Z,100834.09
2023-05-19T11:15:07.678Z,100843.94
2023-05-19T11:18:15.901Z,100844.34
2023-05-19T11:21:19.876Z,100837.41
2023-05-19T11:24:40.653Z,100832.09
2023-05-19T11:27:46.691Z,100835.88
2023-05-19T11:30:50.789Z,100840.31
2023-05-19T11:33:53.370Z,100832.75
2023-05-19T11:36:57.683Z,100838.03
2023-05-19T11:40:07.364Z,100835.38
2023-05-19T11:43:10.756Z,100828.28
2023-05-19T11:46:13.547Z,100830.03
2023-05-19T11:49:17.501Z,100822.94
2023-05-19T11:52:21.222Z,100827.78
2023-05-19T11:55:24.966Z,100822.03
2023-05-19T11:58:27.954Z,100819.81
2023-05-19T12:01:32.066Z,100819.41
2023-05-19T12:04:34.812Z,100824.47
2023-05-19T12:07:39.578Z,100823.53
2023-05-19T12:10:42.471Z,100817.19
2023-05-19T12:13:45.187Z,100813.37
2023-05-19T12:16:47.902Z,100802.75
2023-05-19T12:19:50.942Z,100808.81
2023-05-19T12:22:55.637Z,100803.72
2023-05-19T12:26:01.681Z,100795.97
2023-05-19T12:29:07.220Z,100793.53
2023-05-19T12:32:09.979Z,100791.59
2023-05-19T12:35:12.672Z,100786.69
2023-05-19T12:38:16.145Z,100791.75
2023-05-19T12:41:19.498Z,100777.75
2023-05-19T12:44:22.159Z,100768.44
2023-05-19T12:47:30.783Z,100767.47
2023-05-19T12:50:34.712Z,100762.16
2023-05-19T12:53:38.145Z,100758.28
2023-05-19T12:56:49.419Z,100761.78
2023-05-19T12:59:52.147Z,100748.19
2023-05-19T13:02:55.349Z,100745.25
2023-05-19T13:05:59.877Z,100762.63
2023-05-19T13:09:03.803Z,100756.84
2023-05-19T13:12:06.587Z,100750.97
2023-05-19T13:15:09.415Z,100756.59
2023-05-19T13:18:12.834Z,100750.91
2023-05-19T13:21:15.834Z,100743.84
2023-05-19T13:24:18.563Z,100740.91
2023-05-19T13:27:21.149Z,100737.38
2023-05-19T13:30:24.453Z,100736.66
2023-05-19T13:33:27.118Z,100727.47
2023-05-19T13:36:29.893Z,100729.19
2023-05-19T13:39:33.112Z,100721.31
2023-05-19T13:42:36.099Z,100715.88
2023-05-19T13:45:38.766Z,100713.94
2023-05-19T13:48:42.687Z,100718.13
2023-05-19T13:51:45.398Z,100712.66
2023-05-19T13:54:48.575Z,100719.09
2023-05-19T13:57:51.170Z,100715.44
2023-05-19T14:00:56.448Z,100713.62
2023-05-19T14:04:00.563Z,100705.94
2023-05-19T14:07:03.426Z,100702.63
2023-05-19T14:10:06.969Z,100700.03
2023-05-19T14:16:17.743Z,100696.31
2023-05-19T14:19:20.295Z,100700.47
2023-05-19T14:22:23.357Z,100690.38
2023-05-19T14:25:25.690Z,100693.16
2023-05-19T14:28:28.606Z,100690.72
2023-05-19T14:31:31.296Z,100696.94
2023-05-19T14:34:35.707Z,100692.53
2023-05-19T14:37:38.157Z,100691.06
2023-05-19T14:40:41.556Z,100698.34
2023-05-19T14:43:43.944Z,100695.06
2023-05-19T14:46:46.927Z,100698.84
2023-05-19T14:49:49.385Z,100697.91
2023-05-19T14:52:52.290Z,100701.81
2023-05-19T14:55:54.629Z,100691.16
2023-05-19T14:58:57.686Z,100696.06
2023-05-19T15:02:00.009Z,100686.38
2023-05-19T15:05:03.207Z,100681.78
2023-05-19T15:08:06.445Z,100681.78
2023-05-19T15:11:09.549Z,100680.06
2023-05-19T15:14:11.892Z,100680.69
2023-05-19T15:17:14.922Z,100682.50
2023-05-19T15:20:17.469Z,100677.28
2023-05-19T15:23:20.378Z,100675.62
2023-05-19T15:26:22.703Z,100676.25
2023-05-19T15:29:25.533Z,100684.69
2023-05-19T15:32:27.921Z,100687.53
2023-05-19T15:35:30.862Z,100694.63
2023-05-19T15:38:35.512Z,100680.47
2023-05-19T15:41:38.494Z,100677.78
2023-05-19T15:44:41.005Z,100676.16
2023-05-19T15:47:44.217Z,100680.78
2023-05-19T15:50:46.679Z,100675.44
2023-05-19T15:53:49.785Z,100677.22
2023-05-19T15:56:52.412Z,100669.50
2023-05-19T15:59:55.934Z,100674.69
2023-05-19T16:02:58.516Z,100674.03
2023-05-19T16:06:01.479Z,100673.19
2023-05-19T16:09:04.057Z,100673.09
2023-05-19T16:12:07.131Z,100679.25
2023-05-19T16:15:09.733Z,100681.03
2023-05-19T16:18:13.003Z,100683.69
2023-05-19T16:21:15.443Z,100687.22
2023-05-19T16:24:18.398Z,100681.06
2023-05-19T16:27:20.919Z,100687.22
2023-05-19T16:30:24.643Z,100692.53
2023-05-19T16:33:27.312Z,100690.81
2023-05-19T16:36:30.295Z,100691.72
2023-05-19T16:39:32.783Z,100681.13
2023-05-19T16:42:35.895Z,100687.31
2023-05-19T16:45:38.479Z,100690.00
2023-05-19T16:48:41.530Z,100691.75
2023-05-19T16:51:43.850Z,100691.75
2023-05-19T16:54:46.832Z,100686.44
2023-05-19T16:57:49.252Z,100681.16
2023-05-19T17:00:52.706Z,100678.50
2023-05-19T17:03:59.700Z,100689.09
2023-05-19T17:07:04.720Z,100681.16
2023-05-19T17:10:07.657Z,100686.44
2023-05-19T17:13:11.244Z,100692.66
2023-05-19T17:16:13.673Z,100684.69
2023-05-19T17:19:16.947Z,100689.09
2023-05-19T17:22:19.408Z,100689.97
2023-05-19T17:25:22.440Z,100682.03
2023-05-19T17:28:24.983Z,100688.22
2023-05-19T17:31:27.950Z,100692.62
2023-05-19T17:34:30.748Z,100693.47
2023-05-19T17:37:33.842Z,100697.84
2023-05-19T17:40:37.071Z,100694.31
2023-05-19T17:43:43.209Z,100699.62
2023-05-19T17:46:45.744Z,100706.66
2023-05-19T17:49:49.063Z,100703.12
2023-05-19T17:52:51.647Z,100707.53
2023-05-19T17:55:58.516Z,100705.75
2023-05-19T17:59:01.015Z,100710.16
2023-05-19T18:02:04.160Z,100711.03
2023-05-19T18:05:07.109Z,100707.47
2023-05-19T18:08:10.359Z,100703.06
2023-05-19T18:11:16.011Z,100708.34
2023-05-19T18:14:18.892Z,100710.09
2023-05-19T18:17:21.521Z,100706.50
2023-05-19T18:20:24.114Z,100698.50
2023-05-19T18:23:26.832Z,100707.31
2023-05-19T18:26:29.521Z,100701.13
2023-05-19T18:29:35.977Z,100705.47
2023-05-19T18:32:38.844Z,100708.06
2023-05-19T18:35:41.564Z,100713.31
2023-05-19T18:38:44.176Z,100720.31
2023-05-19T18:41:47.570Z,100716.69
2023-05-19T18:44:50.809Z,100722.78
2023-05-19T18:47:53.596Z,100721.84
2023-05-19T18:50:57.197Z,100731.50
2023-05-19T18:53:59.834Z,100731.44
2023-05-19T18:57:03.537Z,100736.66
2023-05-19T19:00:06.613Z,100733.97
2023-05-19T19:03:12.391Z,100733.91
2023-05-19T19:06:17.074Z,100734.75
2023-05-19T19:09:19.755Z,100730.25
2023-05-19T19:12:22.486Z,100736.38
2023-05-19T19:15:26.009Z,100725.75
2023-05-19T19:18:28.903Z,100732.75
2023-05-19T19:21:31.813Z,100738.87
2023-05-19T19:24:35.871Z,100744.16
2023-05-19T19:27:38.513Z,100746.75
2023-05-19T19:30:41.196Z,100750.19
2023-05-19T19:33:43.934Z,100751.94
2023-05-19T19:36:47.900Z,100748.38
2023-05-19T19:39:50.600Z,100752.78
2023-05-19T19:42:53.640Z,100755.44
2023-05-19T19:46:04.360Z,100758.94
2023-05-19T19:49:07.135Z,100766.84
2023-05-19T19:52:09.799Z,100773.91
2023-05-19T19:55:12.457Z,100769.47
2023-05-19T19:58:15.128Z,100773.91
2023-05-19T20:01:20.643Z,100773.91
2023-05-19T20:04:23.815Z,100773.03
2023-05-19T20:07:26.303Z,100771.31
2023-05-19T20:10:30.338Z,100776.56
2023-05-19T20:13:33.006Z,100776.56
2023-05-19T20:16:36.247Z,100775.63
2023-05-19T20:19:38.683Z,100777.34
2023-05-19T20:22:41.774Z,100772.94
2023-05-19T20:25:58.909Z,100773.78
2023-05-19T20:29:07.330Z,100775.53
2023-05-19T20:32:09.803Z,100767.59
2023-05-19T20:35:12.864Z,100776.41
2023-05-19T20:38:15.248Z,100777.28
2023-05-19T20:41:18.202Z,100779.00
2023-05-19T20:44:20.660Z,100776.34
2023-05-19T20:47:23.705Z,100773.69
2023-05-19T20:50:26.287Z,100772.81
2023-05-19T20:53:29.231Z,100771.06
2023-05-19T20:56:31.714Z,100776.34
2023-05-19T20:59:38.031Z,100764.00
2023-05-19T21:02:41.996Z,100775.41
2023-05-19T21:05:44.969Z,100771.03
2023-05-19T21:08:47.397Z,100778.03
2023-05-19T21:11:53.212Z,100776.25
2023-05-19T21:14:55.877Z,100774.47
2023-05-19T21:17:58.958Z,100775.31
2023-05-19T21:21:02.068Z,100768.25
2023-05-19T21:24:05.172Z,100767.34
2023-05-19T21:27:07.715Z,100770.81
2023-05-19T21:30:10.888Z,100776.03
2023-05-19T21:33:13.277Z,100775.09
2023-05-19T21:36:16.887Z,100781.22
2023-05-19T21:39:19.277Z,100775.09
2023-05-19T21:42:22.286Z,100781.09
2023-05-19T21:45:24.698Z,100774.00
2023-05-19T21:48:27.604Z,100772.19
2023-05-19T21:51:29.989Z,100775.69
2023-05-19T21:54:32.956Z,100766.84
2023-05-19T21:57:35.440Z,100761.59
2023-05-19T22:00:38.923Z,100769.47
2023-05-19T22:03:42.113Z,100764.12
2023-05-19T22:06:44.983Z,100762.28
2023-05-19T22:09:48.901Z,100771.91
2023-05-19T22:12:51.977Z,100760.72
2023-05-19T22:15:54.948Z,100761.44
2023-05-19T22:18:57.742Z,100751.63
2023-05-19T22:22:10.210Z,100741.87
2023-05-19T22:25:16.577Z,100739.19
2023-05-19T22:28:19.252Z,100737.38
2023-05-19T22:31:21.933Z,100725.88
2023-05-19T22:34:24.618Z,100731.13
2023-05-19T22:37:28.933Z,100730.19
2023-05-19T22:40:32.661Z,100727.69
2023-05-19T22:43:35.500Z,100725.03
2023-05-19T22:46:38.290Z,100717.25
2023-05-19T22:49:41.639Z,100729.44
2023-05-19T22:52:44.357Z,100733.62
2023-05-19T22:55:47.044Z,100740.53
2023-05-19T22:58:49.833Z,100737.81
2023-05-19T23:01:52.646Z,100737.75
2023-05-19T23:04:55.681Z,100734.19
2023-05-19T23:07:58.361Z,100725.34
2023-05-19T23:11:02.213Z,100724.41
2023-05-19T23:14:04.927Z,100713.84
2023-05-19T23:17:07.555Z,100717.41
2023-05-19T23:20:10.644Z,100709.50
2023-05-19T23:23:13.359Z,100714.72
2023-05-19T23:26:16.208Z,100716.50
2023-05-19T23:29:19.049Z,100725.31
2023-05-19T23:32:21.764Z,100724.41
2023-05-19T23:35:24.462Z,100719.13
2023-05-19T23:38:27.748Z,100724.38
2023-05-19T23:41:30.453Z,100716.50
2023-05-19T23:44:33.070Z,100719.09
2023-05-19T23:47:35.737Z,100713.78
2023-05-19T23:50:39.018Z,100704.97
2023-05-19T23:53:41.720Z,100704.87
2023-05-19T23:56:44.337Z,100702.19
2023-05-19T23:59:47.003Z,100696.84
